sensor_id;sensor_type;location;lat;lon;timestamp;temperature;humidity
11229;DHT22;5671;47.936;8.716;2023-03-03T00:01:17;-2.10;84.10
11229;DHT22;5671;47.936;8.716;2023-03-03T00:03:44;-2.10;83.90
11229;DHT22;5671;47.936;8.716;2023-03-03T00:06:13;-2.20;83.80
11229;DHT22;5671;47.936;8.716;2023-03-03T00:08:41;-2.20;83.70
11229;DHT22;5671;47.936;8.716;2023-03-03T00:11:08;-2.20;83.60
11229;DHT22;5671;47.936;8.716;2023-03-03T00:13:43;-2.30;83.60
11229;DHT22;5671;47.936;8.716;2023-03-03T00:16:16;-2.30;84.20
11229;DHT22;5671;47.936;8.716;2023-03-03T00:18:46;-2.30;83.70
11229;DHT22;5671;47.936;8.716;2023-03-03T00:21:25;-2.40;83.50
11229;DHT22;5671;47.936;8.716;2023-03-03T00:23:54;-2.40;83.20
11229;DHT22;5671;47.936;8.716;2023-03-03T00:26:28;-2.40;83.20
11229;DHT22;5671;47.936;8.716;2023-03-03T00:28:56;-2.40;83.10
11229;DHT22;5671;47.936;8.716;2023-03-03T00:31:28;-2.50;82.90
11229;DHT22;5671;47.936;8.716;2023-03-03T00:34:00;-2.50;82.40
11229;DHT22;5671;47.936;8.716;2023-03-03T00:36:35;-2.60;82.40
11229;DHT22;5671;47.936;8.716;2023-03-03T00:39:18;-2.60;83.00
11229;DHT22;5671;47.936;8.716;2023-03-03T00:41:48;-2.70;83.40
11229;DHT22;5671;47.936;8.716;2023-03-03T00:44:42;-2.70;83.20
11229;DHT22;5671;47.936;8.716;2023-03-03T00:47:28;-2.70;82.70
11229;DHT22;5671;47.936;8.716;2023-03-03T00:50:15;-2.80;82.40
11229;DHT22;5671;47.936;8.716;2023-03-03T00:52:52;-2.80;83.00
11229;DHT22;5671;47.936;8.716;2023-03-03T00:55:23;-2.90;83.40
11229;DHT22;5671;47.936;8.716;2023-03-03T00:57:50;-2.90;83.00
11229;DHT22;5671;47.936;8.716;2023-03-03T01:00:17;-2.90;82.90
11229;DHT22;5671;47.936;8.716;2023-03-03T01:02:44;-3.00;82.90
11229;DHT22;5671;47.936;8.716;2023-03-03T01:05:14;-3.00;82.70
11229;DHT22;5671;47.936;8.716;2023-03-03T01:07:42;-3.00;83.20
11229;DHT22;5671;47.936;8.716;2023-03-03T01:10:10;-3.10;83.10
11229;DHT22;5671;47.936;8.716;2023-03-03T01:12:37;-3.10;83.10
11229;DHT22;5671;47.936;8.716;2023-03-03T01:15:05;-3.10;83.50
11229;DHT22;5671;47.936;8.716;2023-03-03T01:17:32;-3.20;83.60
11229;DHT22;5671;47.936;8.716;2023-03-03T01:19:59;-3.20;83.50
11229;DHT22;5671;47.936;8.716;2023-03-03T01:22:26;-2.80;81.30
11229;DHT22;5671;47.936;8.716;2023-03-03T01:24:53;-2.60;81.20
11229;DHT22;5671;47.936;8.716;2023-03-03T01:27:21;-3.20;82.90
11229;DHT22;5671;47.936;8.716;2023-03-03T01:29:48;-3.20;83.10
11229;DHT22;5671;47.936;8.716;2023-03-03T01:32:15;-3.30;83.10
11229;DHT22;5671;47.936;8.716;2023-03-03T01:34:41;-3.20;83.40
11229;DHT22;5671;47.936;8.716;2023-03-03T01:37:08;-2.90;83.00
11229;DHT22;5671;47.936;8.716;2023-03-03T01:39:35;-3.30;84.00
11229;DHT22;5671;47.936;8.716;2023-03-03T01:42:03;-3.40;84.50
11229;DHT22;5671;47.936;8.716;2023-03-03T01:44:31;-3.50;85.10
11229;DHT22;5671;47.936;8.716;2023-03-03T01:47:02;-2.90;83.60
11229;DHT22;5671;47.936;8.716;2023-03-03T01:49:33;-3.40;84.70
11229;DHT22;5671;47.936;8.716;2023-03-03T01:52:04;-3.50;85.50
11229;DHT22;5671;47.936;8.716;2023-03-03T01:54:39;-3.50;85.00
11229;DHT22;5671;47.936;8.716;2023-03-03T01:57:12;-3.50;85.00
11229;DHT22;5671;47.936;8.716;2023-03-03T01:59:46;-3.00;85.00
11229;DHT22;5671;47.936;8.716;2023-03-03T02:02:14;-3.50;86.30
11229;DHT22;5671;47.936;8.716;2023-03-03T02:04:41;-3.60;86.80
11229;DHT22;5671;47.936;8.716;2023-03-03T02:07:11;-3.60;86.90
11229;DHT22;5671;47.936;8.716;2023-03-03T02:09:45;-3.60;86.50
11229;DHT22;5671;47.936;8.716;2023-03-03T02:12:17;-3.60;86.20
11229;DHT22;5671;47.936;8.716;2023-03-03T02:14:46;-3.60;86.30
11229;DHT22;5671;47.936;8.716;2023-03-03T02:17:13;-3.70;85.70
11229;DHT22;5671;47.936;8.716;2023-03-03T02:19:49;-3.30;84.20
11229;DHT22;5671;47.936;8.716;2023-03-03T02:22:28;-3.70;84.50
11229;DHT22;5671;47.936;8.716;2023-03-03T02:25:00;-3.70;84.40
11229;DHT22;5671;47.936;8.716;2023-03-03T02:27:30;-3.50;84.50
11229;DHT22;5671;47.936;8.716;2023-03-03T02:30:08;-3.70;84.60
11229;DHT22;5671;47.936;8.716;2023-03-03T02:32:36;-3.70;84.60
11229;DHT22;5671;47.936;8.716;2023-03-03T02:35:24;-3.60;84.70
11229;DHT22;5671;47.936;8.716;2023-03-03T02:37:52;-3.80;85.10
11229;DHT22;5671;47.936;8.716;2023-03-03T02:40:24;-3.70;85.10
11229;DHT22;5671;47.936;8.716;2023-03-03T02:42:55;-3.50;85.20
11229;DHT22;5671;47.936;8.716;2023-03-03T02:45:23;-3.20;83.80
11229;DHT22;5671;47.936;8.716;2023-03-03T02:47:51;-3.60;84.90
11229;DHT22;5671;47.936;8.716;2023-03-03T02:50:17;-3.20;84.10
11229;DHT22;5671;47.936;8.716;2023-03-03T02:52:44;-3.50;84.90
11229;DHT22;5671;47.936;8.716;2023-03-03T02:55:11;-3.40;85.40
11229;DHT22;5671;47.936;8.716;2023-03-03T02:57:38;-3.60;85.70
11229;DHT22;5671;47.936;8.716;2023-03-03T03:00:07;-3.40;86.10
11229;DHT22;5671;47.936;8.716;2023-03-03T03:02:34;-3.60;86.40
11229;DHT22;5671;47.936;8.716;2023-03-03T03:05:01;-3.00;85.50
11229;DHT22;5671;47.936;8.716;2023-03-03T03:07:28;-3.40;86.30
11229;DHT22;5671;47.936;8.716;2023-03-03T03:09:55;-3.50;86.60
11229;DHT22;5671;47.936;8.716;2023-03-03T03:12:23;-2.80;85.10
11229;DHT22;5671;47.936;8.716;2023-03-03T03:14:50;-3.30;86.00
11229;DHT22;5671;47.936;8.716;2023-03-03T03:17:18;-3.40;86.20
11229;DHT22;5671;47.936;8.716;2023-03-03T03:19:45;-3.30;86.30
11229;DHT22;5671;47.936;8.716;2023-03-03T03:24:39;-2.70;84.30
11229;DHT22;5671;47.936;8.716;2023-03-03T03:27:05;-3.10;85.70
11229;DHT22;5671;47.936;8.716;2023-03-03T03:29:33;-2.70;84.60
11229;DHT22;5671;47.936;8.716;2023-03-03T03:32:00;-3.10;85.50
11229;DHT22;5671;47.936;8.716;2023-03-03T03:34:28;-3.10;85.80
11229;DHT22;5671;47.936;8.716;2023-03-03T03:36:55;-3.10;86.70
11229;DHT22;5671;47.936;8.716;2023-03-03T03:39:22;-3.10;87.20
11229;DHT22;5671;47.936;8.716;2023-03-03T03:41:50;-3.10;87.10
11229;DHT22;5671;47.936;8.716;2023-03-03T03:44:17;-3.00;87.70
11229;DHT22;5671;47.936;8.716;2023-03-03T03:46:44;-3.00;87.60
11229;DHT22;5671;47.936;8.716;2023-03-03T03:49:11;-3.00;87.10
11229;DHT22;5671;47.936;8.716;2023-03-03T03:51:39;-2.90;86.50
11229;DHT22;5671;47.936;8.716;2023-03-03T03:54:06;-2.90;86.10
11229;DHT22;5671;47.936;8.716;2023-03-03T03:56:36;-2.90;85.80
11229;DHT22;5671;47.936;8.716;2023-03-03T03:59:04;-2.30;83.70
11229;DHT22;5671;47.936;8.716;2023-03-03T04:01:31;-2.70;84.60
11229;DHT22;5671;47.936;8.716;2023-03-03T04:03:58;-2.70;84.90
11229;DHT22;5671;47.936;8.716;2023-03-03T04:06:25;-2.70;84.90
11229;DHT22;5671;47.936;8.716;2023-03-03T04:08:54;-2.70;84.90
11229;DHT22;5671;47.936;8.716;2023-03-03T04:11:20;-2.70;85.80
11229;DHT22;5671;47.936;8.716;2023-03-03T04:13:48;-2.70;86.20
11229;DHT22;5671;47.936;8.716;2023-03-03T04:16:14;-2.70;86.40
11229;DHT22;5671;47.936;8.716;2023-03-03T04:18:41;-2.60;86.70
11229;DHT22;5671;47.936;8.716;2023-03-03T04:21:11;-2.60;87.90
11229;DHT22;5671;47.936;8.716;2023-03-03T04:23:38;-2.60;88.10
11229;DHT22;5671;47.936;8.716;2023-03-03T04:26:07;-2.50;88.30
11229;DHT22;5671;47.936;8.716;2023-03-03T04:28:34;-2.50;88.50
11229;DHT22;5671;47.936;8.716;2023-03-03T04:31:00;-2.50;88.50
11229;DHT22;5671;47.936;8.716;2023-03-03T04:33:27;-2.40;88.80
11229;DHT22;5671;47.936;8.716;2023-03-03T04:35:54;-2.40;89.10
11229;DHT22;5671;47.936;8.716;2023-03-03T04:38:21;-2.40;89.30
11229;DHT22;5671;47.936;8.716;2023-03-03T04:40:48;-2.30;89.40
11229;DHT22;5671;47.936;8.716;2023-03-03T04:43:16;-2.10;89.30
11229;DHT22;5671;47.936;8.716;2023-03-03T04:45:43;-2.30;89.10
11229;DHT22;5671;47.936;8.716;2023-03-03T04:48:10;-2.30;89.10
11229;DHT22;5671;47.936;8.716;2023-03-03T04:50:37;-2.30;89.10
11229;DHT22;5671;47.936;8.716;2023-03-03T04:53:04;-1.70;87.50
11229;DHT22;5671;47.936;8.716;2023-03-03T04:55:30;-2.10;88.20
11229;DHT22;5671;47.936;8.716;2023-03-03T04:57:57;-2.20;88.60
11229;DHT22;5671;47.936;8.716;2023-03-03T05:00:25;-2.20;88.90
11229;DHT22;5671;47.936;8.716;2023-03-03T05:02:52;-2.20;88.90
11229;DHT22;5671;47.936;8.716;2023-03-03T05:05:19;-2.20;89.20
11229;DHT22;5671;47.936;8.716;2023-03-03T05:07:46;-2.20;89.40
11229;DHT22;5671;47.936;8.716;2023-03-03T05:12:40;-1.60;87.90
11229;DHT22;5671;47.936;8.716;2023-03-03T05:15:07;-1.90;88.80
11229;DHT22;5671;47.936;8.716;2023-03-03T05:17:35;-2.10;89.10
11229;DHT22;5671;47.936;8.716;2023-03-03T05:20:03;-2.10;89.20
11229;DHT22;5671;47.936;8.716;2023-03-03T05:22:33;-2.10;89.30
11229;DHT22;5671;47.936;8.716;2023-03-03T05:24:59;-2.10;89.50
11229;DHT22;5671;47.936;8.716;2023-03-03T05:27:26;-1.90;89.20
11229;DHT22;5671;47.936;8.716;2023-03-03T05:29:53;-2.10;89.20
11229;DHT22;5671;47.936;8.716;2023-03-03T05:32:20;-2.10;89.30
11229;DHT22;5671;47.936;8.716;2023-03-03T05:34:48;-2.10;89.40
11229;DHT22;5671;47.936;8.716;2023-03-03T05:37:15;-2.10;89.50
11229;DHT22;5671;47.936;8.716;2023-03-03T05:39:42;-2.10;89.50
11229;DHT22;5671;47.936;8.716;2023-03-03T05:42:11;-2.00;89.60
11229;DHT22;5671;47.936;8.716;2023-03-03T05:44:38;-2.10;89.60
11229;DHT22;5671;47.936;8.716;2023-03-03T05:47:05;-1.80;89.60
11229;DHT22;5671;47.936;8.716;2023-03-03T05:49:32;-2.00;89.40
11229;DHT22;5671;47.936;8.716;2023-03-03T05:52:00;-2.00;89.30
11229;DHT22;5671;47.936;8.716;2023-03-03T05:54:27;-2.00;89.30
11229;DHT22;5671;47.936;8.716;2023-03-03T05:56:54;-2.00;89.40
11229;DHT22;5671;47.936;8.716;2023-03-03T05:59:22;-1.40;88.10
11229;DHT22;5671;47.936;8.716;2023-03-03T06:01:49;-1.90;88.80
11229;DHT22;5671;47.936;8.716;2023-03-03T06:04:15;-2.00;88.90
11229;DHT22;5671;47.936;8.716;2023-03-03T06:06:42;-1.90;88.90
11229;DHT22;5671;47.936;8.716;2023-03-03T06:09:13;-2.00;88.90
11229;DHT22;5671;47.936;8.716;2023-03-03T06:11:43;-1.90;88.70
11229;DHT22;5671;47.936;8.716;2023-03-03T06:14:10;-1.90;88.50
11229;DHT22;5671;47.936;8.716;2023-03-03T06:16:37;-2.00;88.30
11229;DHT22;5671;47.936;8.716;2023-03-03T06:19:04;-1.90;88.00
11229;DHT22;5671;47.936;8.716;2023-03-03T06:21:31;-1.90;88.00
11229;DHT22;5671;47.936;8.716;2023-03-03T06:23:57;-1.40;86.70
11229;DHT22;5671;47.936;8.716;2023-03-03T06:26:26;-1.80;87.40
11229;DHT22;5671;47.936;8.716;2023-03-03T06:28:52;-1.90;87.70
11229;DHT22;5671;47.936;8.716;2023-03-03T06:31:20;-1.90;87.80
11229;DHT22;5671;47.936;8.716;2023-03-03T06:33:47;-1.90;88.10
11229;DHT22;5671;47.936;8.716;2023-03-03T06:36:15;-1.90;88.30
11229;DHT22;5671;47.936;8.716;2023-03-03T06:38:41;-1.90;88.30
11229;DHT22;5671;47.936;8.716;2023-03-03T06:41:08;-1.80;88.20
11229;DHT22;5671;47.936;8.716;2023-03-03T06:43:37;-1.80;88.20
11229;DHT22;5671;47.936;8.716;2023-03-03T06:46:04;-1.80;88.10
11229;DHT22;5671;47.936;8.716;2023-03-03T06:48:32;-1.80;87.90
11229;DHT22;5671;47.936;8.716;2023-03-03T06:50:59;-1.70;88.40
11229;DHT22;5671;47.936;8.716;2023-03-03T06:53:27;-1.20;87.50
11229;DHT22;5671;47.936;8.716;2023-03-03T06:55:57;-1.40;88.20
11229;DHT22;5671;47.936;8.716;2023-03-03T06:58:26;-1.70;88.50
11229;DHT22;5671;47.936;8.716;2023-03-03T07:00:57;-1.70;88.40
11229;DHT22;5671;47.936;8.716;2023-03-03T07:03:25;-1.60;88.20
11229;DHT22;5671;47.936;8.716;2023-03-03T07:05:54;-1.60;88.20
11229;DHT22;5671;47.936;8.716;2023-03-03T07:08:23;-1.60;88.50
11229;DHT22;5671;47.936;8.716;2023-03-03T07:10:53;-1.60;88.40
11229;DHT22;5671;47.936;8.716;2023-03-03T07:13:21;-1.60;88.40
11229;DHT22;5671;47.936;8.716;2023-03-03T07:15:50;-1.50;88.50
11229;DHT22;5671;47.936;8.716;2023-03-03T07:18:30;-1.50;88.50
11229;DHT22;5671;47.936;8.716;2023-03-03T07:21:07;-1.50;88.40
11229;DHT22;5671;47.936;8.716;2023-03-03T07:23:39;-1.40;88.20
11229;DHT22;5671;47.936;8.716;2023-03-03T07:26:10;-1.40;88.10
11229;DHT22;5671;47.936;8.716;2023-03-03T07:28:40;-1.40;88.10
11229;DHT22;5671;47.936;8.716;2023-03-03T07:31:26;-1.40;88.10
11229;DHT22;5671;47.936;8.716;2023-03-03T07:33:56;-1.30;88.00
11229;DHT22;5671;47.936;8.716;2023-03-03T07:36:28;-1.30;88.00
11229;DHT22;5671;47.936;8.716;2023-03-03T07:38:57;-1.30;88.00
11229;DHT22;5671;47.936;8.716;2023-03-03T07:41:26;-1.30;88.10
11229;DHT22;5671;47.936;8.716;2023-03-03T07:43:54;-1.20;88.00
11229;DHT22;5671;47.936;8.716;2023-03-03T07:46:29;-1.20;88.00
11229;DHT22;5671;47.936;8.716;2023-03-03T07:48:58;-1.10;87.90
11229;DHT22;5671;47.936;8.716;2023-03-03T07:51:27;-1.10;87.60
11229;DHT22;5671;47.936;8.716;2023-03-03T07:54:00;-1.00;87.40
11229;DHT22;5671;47.936;8.716;2023-03-03T07:56:37;-1.00;87.50
11229;DHT22;5671;47.936;8.716;2023-03-03T07:59:17;-1.00;87.30
11229;DHT22;5671;47.936;8.716;2023-03-03T08:01:49;-0.90;87.00
11229;DHT22;5671;47.936;8.716;2023-03-03T08:04:22;-0.90;86.90
11229;DHT22;5671;47.936;8.716;2023-03-03T08:06:54;-0.90;86.90
11229;DHT22;5671;47.936;8.716;2023-03-03T08:09:43;-0.80;86.50
11229;DHT22;5671;47.936;8.716;2023-03-03T08:12:36;-0.80;86.30
11229;DHT22;5671;47.936;8.716;2023-03-03T08:15:16;-0.70;86.20
11229;DHT22;5671;47.936;8.716;2023-03-03T08:17:44;-0.70;86.00
11229;DHT22;5671;47.936;8.716;2023-03-03T08:20:53;-0.70;85.80
11229;DHT22;5671;47.936;8.716;2023-03-03T08:23:20;-0.60;85.70
11229;DHT22;5671;47.936;8.716;2023-03-03T08:25:49;-0.60;85.70
11229;DHT22;5671;47.936;8.716;2023-03-03T08:28:16;-0.60;85.70
11229;DHT22;5671;47.936;8.716;2023-03-03T08:30:44;-0.50;85.40
11229;DHT22;5671;47.936;8.716;2023-03-03T08:33:11;-0.50;85.20
11229;DHT22;5671;47.936;8.716;2023-03-03T08:35:39;-0.50;85.10
11229;DHT22;5671;47.936;8.716;2023-03-03T08:38:07;-0.50;85.10
11229;DHT22;5671;47.936;8.716;2023-03-03T08:40:35;-0.40;85.00
11229;DHT22;5671;47.936;8.716;2023-03-03T08:43:03;-0.40;84.80
11229;DHT22;5671;47.936;8.716;2023-03-03T08:45:30;-0.40;84.90
11229;DHT22;5671;47.936;8.716;2023-03-03T08:47:57;-0.40;84.80
11229;DHT22;5671;47.936;8.716;2023-03-03T08:50:24;-0.30;84.90
11229;DHT22;5671;47.936;8.716;2023-03-03T08:52:51;-0.30;84.50
11229;DHT22;5671;47.936;8.716;2023-03-03T08:55:19;-0.30;84.70
11229;DHT22;5671;47.936;8.716;2023-03-03T08:57:46;-0.20;84.60
11229;DHT22;5671;47.936;8.716;2023-03-03T09:00:16;-0.20;84.90
11229;DHT22;5671;47.936;8.716;2023-03-03T09:02:42;-0.10;84.90
11229;DHT22;5671;47.936;8.716;2023-03-03T09:05:15;-0.20;84.30
11229;DHT22;5671;47.936;8.716;2023-03-03T09:07:44;-0.10;84.40
11229;DHT22;5671;47.936;8.716;2023-03-03T09:10:29;0.00;84.40
11229;DHT22;5671;47.936;8.716;2023-03-03T09:13:01;0.00;84.40
11229;DHT22;5671;47.936;8.716;2023-03-03T09:15:42;0.00;84.00
11229;DHT22;5671;47.936;8.716;2023-03-03T09:18:15;0.00;83.90
11229;DHT22;5671;47.936;8.716;2023-03-03T09:20:44;0.10;83.90
11229;DHT22;5671;47.936;8.716;2023-03-03T09:23:33;0.10;83.60
11229;DHT22;5671;47.936;8.716;2023-03-03T09:26:44;0.20;83.30
11229;DHT22;5671;47.936;8.716;2023-03-03T09:29:34;0.20;83.30
11229;DHT22;5671;47.936;8.716;2023-03-03T09:38:53;0.50;83.10
11229;DHT22;5671;47.936;8.716;2023-03-03T09:41:43;0.50;82.90
11229;DHT22;5671;47.936;8.716;2023-03-03T09:50:26;0.70;82.10
11229;DHT22;5671;47.936;8.716;2023-03-03T09:53:07;0.80;81.80
11229;DHT22;5671;47.936;8.716;2023-03-03T09:55:46;0.80;81.90
11229;DHT22;5671;47.936;8.716;2023-03-03T09:58:30;0.90;81.60
11229;DHT22;5671;47.936;8.716;2023-03-03T10:01:12;0.90;81.40
11229;DHT22;5671;47.936;8.716;2023-03-03T10:04:14;1.00;81.40
11229;DHT22;5671;47.936;8.716;2023-03-03T10:06:45;1.10;80.70
11229;DHT22;5671;47.936;8.716;2023-03-03T10:09:36;1.10;81.00
11229;DHT22;5671;47.936;8.716;2023-03-03T10:12:09;1.20;81.10
11229;DHT22;5671;47.936;8.716;2023-03-03T10:17:46;1.40;80.30
11229;DHT22;5671;47.936;8.716;2023-03-03T10:20:34;1.50;79.50
11229;DHT22;5671;47.936;8.716;2023-03-03T10:23:14;1.60;80.30
11229;DHT22;5671;47.936;8.716;2023-03-03T10:25:52;1.70;79.10
11229;DHT22;5671;47.936;8.716;2023-03-03T10:28:39;1.80;79.00
11229;DHT22;5671;47.936;8.716;2023-03-03T10:31:18;2.00;79.60
11229;DHT22;5671;47.936;8.716;2023-03-03T10:33:53;2.10;78.80
11229;DHT22;5671;47.936;8.716;2023-03-03T10:36:33;2.30;78.40
11229;DHT22;5671;47.936;8.716;2023-03-03T10:39:31;2.40;77.70
11229;DHT22;5671;47.936;8.716;2023-03-03T10:42:18;2.70;77.50
11229;DHT22;5671;47.936;8.716;2023-03-03T10:45:25;2.80;76.70
11229;DHT22;5671;47.936;8.716;2023-03-03T10:48:07;3.00;76.20
11229;DHT22;5671;47.936;8.716;2023-03-03T10:50:47;3.20;75.30
11229;DHT22;5671;47.936;8.716;2023-03-03T10:53:21;3.30;74.20
11229;DHT22;5671;47.936;8.716;2023-03-03T10:56:00;3.50;74.40
11229;DHT22;5671;47.936;8.716;2023-03-03T10:58:49;3.70;73.40
11229;DHT22;5671;47.936;8.716;2023-03-03T11:01:25;3.90;72.90
11229;DHT22;5671;47.936;8.716;2023-03-03T11:07:02;4.30;72.40
11229;DHT22;5671;47.936;8.716;2023-03-03T11:12:34;4.80;71.00
11229;DHT22;5671;47.936;8.716;2023-03-03T11:15:18;5.00;71.20
11229;DHT22;5671;47.936;8.716;2023-03-03T11:17:59;5.30;70.00
11229;DHT22;5671;47.936;8.716;2023-03-03T11:20:37;5.50;69.40
11229;DHT22;5671;47.936;8.716;2023-03-03T11:23:25;5.70;68.90
11229;DHT22;5671;47.936;8.716;2023-03-03T11:26:08;5.80;68.20
11229;DHT22;5671;47.936;8.716;2023-03-03T11:28:46;6.00;68.40
11229;DHT22;5671;47.936;8.716;2023-03-03T11:31:21;6.20;67.10
11229;DHT22;5671;47.936;8.716;2023-03-03T11:33:57;6.30;64.60
11229;DHT22;5671;47.936;8.716;2023-03-03T11:36:28;6.50;66.70
11229;DHT22;5671;47.936;8.716;2023-03-03T11:39:01;6.80;64.90
11229;DHT22;5671;47.936;8.716;2023-03-03T11:41:35;7.00;64.80
11229;DHT22;5671;47.936;8.716;2023-03-03T11:44:09;7.30;63.30
11229;DHT22;5671;47.936;8.716;2023-03-03T11:46:43;7.40;62.20
11229;DHT22;5671;47.936;8.716;2023-03-03T11:49:14;7.60;63.20
11229;DHT22;5671;47.936;8.716;2023-03-03T11:51:52;7.80;62.70
11229;DHT22;5671;47.936;8.716;2023-03-03T11:54:29;8.00;62.00
11229;DHT22;5671;47.936;8.716;2023-03-03T11:57:09;8.10;61.10
11229;DHT22;5671;47.936;8.716;2023-03-03T11:59:47;8.30;60.70
11229;DHT22;5671;47.936;8.716;2023-03-03T12:02:41;8.40;59.10
11229;DHT22;5671;47.936;8.716;2023-03-03T12:05:11;8.60;58.60
11229;DHT22;5671;47.936;8.716;2023-03-03T12:07:44;8.80;56.70
11229;DHT22;5671;47.936;8.716;2023-03-03T12:10:25;9.00;56.60
11229;DHT22;5671;47.936;8.716;2023-03-03T12:13:00;9.40;57.00
11229;DHT22;5671;47.936;8.716;2023-03-03T12:15:35;9.60;54.60
11229;DHT22;5671;47.936;8.716;2023-03-03T12:18:34;9.90;53.90
11229;DHT22;5671;47.936;8.716;2023-03-03T12:21:16;10.40;53.20
11229;DHT22;5671;47.936;8.716;2023-03-03T12:23:58;10.80;51.40
11229;DHT22;5671;47.936;8.716;2023-03-03T12:26:33;11.00;49.80
11229;DHT22;5671;47.936;8.716;2023-03-03T12:29:06;11.00;48.30
11229;DHT22;5671;47.936;8.716;2023-03-03T12:31:45;10.90;49.50
11229;DHT22;5671;47.936;8.716;2023-03-03T12:34:22;10.80;48.80
11229;DHT22;5671;47.936;8.716;2023-03-03T12:37:01;10.40;50.10
11229;DHT22;5671;47.936;8.716;2023-03-03T12:39:43;10.20;49.90
11229;DHT22;5671;47.936;8.716;2023-03-03T12:42:23;9.90;51.60
11229;DHT22;5671;47.936;8.716;2023-03-03T12:44:56;9.70;53.00
11229;DHT22;5671;47.936;8.716;2023-03-03T12:47:28;9.50;52.90
11229;DHT22;5671;47.936;8.716;2023-03-03T12:50:08;9.30;53.70
11229;DHT22;5671;47.936;8.716;2023-03-03T12:52:47;9.10;53.60
11229;DHT22;5671;47.936;8.716;2023-03-03T12:55:24;8.90;52.90
11229;DHT22;5671;47.936;8.716;2023-03-03T12:58:05;8.70;53.70
11229;DHT22;5671;47.936;8.716;2023-03-03T13:00:42;8.60;54.70
11229;DHT22;5671;47.936;8.716;2023-03-03T13:03:21;8.60;55.80
11229;DHT22;5671;47.936;8.716;2023-03-03T13:05:57;8.50;55.20
11229;DHT22;5671;47.936;8.716;2023-03-03T13:08:52;8.40;54.90
11229;DHT22;5671;47.936;8.716;2023-03-03T13:11:39;8.40;56.40
11229;DHT22;5671;47.936;8.716;2023-03-03T13:14:18;8.40;56.90
11229;DHT22;5671;47.936;8.716;2023-03-03T13:16:53;8.40;55.80
11229;DHT22;5671;47.936;8.716;2023-03-03T13:19:26;8.30;54.70
11229;DHT22;5671;47.936;8.716;2023-03-03T13:21:58;8.30;56.10
11229;DHT22;5671;47.936;8.716;2023-03-03T13:24:32;8.20;56.30
11229;DHT22;5671;47.936;8.716;2023-03-03T13:27:06;8.10;56.00
11229;DHT22;5671;47.936;8.716;2023-03-03T13:29:38;8.10;56.30
11229;DHT22;5671;47.936;8.716;2023-03-03T13:32:11;8.00;56.60
11229;DHT22;5671;47.936;8.716;2023-03-03T13:34:42;7.90;57.40
11229;DHT22;5671;47.936;8.716;2023-03-03T13:37:19;7.90;56.60
11229;DHT22;5671;47.936;8.716;2023-03-03T13:39:55;7.80;57.50
11229;DHT22;5671;47.936;8.716;2023-03-03T13:42:28;7.70;57.20
11229;DHT22;5671;47.936;8.716;2023-03-03T13:45:01;7.70;58.00
11229;DHT22;5671;47.936;8.716;2023-03-03T13:47:39;7.60;58.50
11229;DHT22;5671;47.936;8.716;2023-03-03T13:50:19;7.60;58.50
11229;DHT22;5671;47.936;8.716;2023-03-03T13:52:54;7.60;58.50
11229;DHT22;5671;47.936;8.716;2023-03-03T13:55:28;7.50;58.70
11229;DHT22;5671;47.936;8.716;2023-03-03T13:57:59;7.50;59.20
11229;DHT22;5671;47.936;8.716;2023-03-03T14:00:39;7.40;58.50
11229;DHT22;5671;47.936;8.716;2023-03-03T14:06:17;7.40;59.50
11229;DHT22;5671;47.936;8.716;2023-03-03T14:09:07;7.30;58.60
11229;DHT22;5671;47.936;8.716;2023-03-03T14:11:43;7.30;60.20
11229;DHT22;5671;47.936;8.716;2023-03-03T14:14:24;7.30;59.70
11229;DHT22;5671;47.936;8.716;2023-03-03T14:16:57;7.30;60.40
11229;DHT22;5671;47.936;8.716;2023-03-03T14:19:30;7.20;59.50
11229;DHT22;5671;47.936;8.716;2023-03-03T14:22:05;7.20;59.80
11229;DHT22;5671;47.936;8.716;2023-03-03T14:24:54;7.20;61.40
11229;DHT22;5671;47.936;8.716;2023-03-03T14:27:24;7.30;60.90
11229;DHT22;5671;47.936;8.716;2023-03-03T14:29:51;7.30;61.20
11229;DHT22;5671;47.936;8.716;2023-03-03T14:32:25;7.40;60.10
11229;DHT22;5671;47.936;8.716;2023-03-03T14:34:57;7.40;60.30
11229;DHT22;5671;47.936;8.716;2023-03-03T14:37:26;7.50;60.90
11229;DHT22;5671;47.936;8.716;2023-03-03T14:40:09;7.50;60.00
11229;DHT22;5671;47.936;8.716;2023-03-03T14:42:46;7.60;60.70
11229;DHT22;5671;47.936;8.716;2023-03-03T14:45:20;7.70;60.70
11229;DHT22;5671;47.936;8.716;2023-03-03T14:47:57;7.70;60.00
11229;DHT22;5671;47.936;8.716;2023-03-03T14:50:32;7.70;59.00
11229;DHT22;5671;47.936;8.716;2023-03-03T14:53:09;7.60;59.90
11229;DHT22;5671;47.936;8.716;2023-03-03T14:55:41;7.70;59.40
11229;DHT22;5671;47.936;8.716;2023-03-03T14:58:27;7.70;58.80
11229;DHT22;5671;47.936;8.716;2023-03-03T15:01:29;7.70;60.50
11229;DHT22;5671;47.936;8.716;2023-03-03T15:04:00;7.70;60.40
11229;DHT22;5671;47.936;8.716;2023-03-03T15:06:33;7.70;59.30
11229;DHT22;5671;47.936;8.716;2023-03-03T15:09:23;7.60;60.40
11229;DHT22;5671;47.936;8.716;2023-03-03T15:11:51;7.70;58.70
11229;DHT22;5671;47.936;8.716;2023-03-03T15:14:22;7.70;60.20
11229;DHT22;5671;47.936;8.716;2023-03-03T15:16:51;7.80;60.20
11229;DHT22;5671;47.936;8.716;2023-03-03T15:19:43;7.80;59.10
11229;DHT22;5671;47.936;8.716;2023-03-03T15:22:19;7.70;59.50
11229;DHT22;5671;47.936;8.716;2023-03-03T15:24:55;7.80;60.40
11229;DHT22;5671;47.936;8.716;2023-03-03T15:27:28;7.80;59.80
11229;DHT22;5671;47.936;8.716;2023-03-03T15:30:06;7.80;58.10
11229;DHT22;5671;47.936;8.716;2023-03-03T15:32:39;7.70;58.90
11229;DHT22;5671;47.936;8.716;2023-03-03T15:35:18;7.70;59.30
11229;DHT22;5671;47.936;8.716;2023-03-03T15:37:52;7.70;59.10
11229;DHT22;5671;47.936;8.716;2023-03-03T15:40:26;7.70;59.40
11229;DHT22;5671;47.936;8.716;2023-03-03T15:43:01;7.60;58.70
11229;DHT22;5671;47.936;8.716;2023-03-03T15:45:32;7.50;59.70
11229;DHT22;5671;47.936;8.716;2023-03-03T15:48:23;7.50;59.00
11229;DHT22;5671;47.936;8.716;2023-03-03T15:51:02;7.50;59.80
11229;DHT22;5671;47.936;8.716;2023-03-03T15:53:54;7.50;59.80
11229;DHT22;5671;47.936;8.716;2023-03-03T15:56:28;7.40;59.90
11229;DHT22;5671;47.936;8.716;2023-03-03T16:02:10;7.40;59.40
11229;DHT22;5671;47.936;8.716;2023-03-03T16:04:47;7.30;59.30
11229;DHT22;5671;47.936;8.716;2023-03-03T16:07:28;7.20;60.40
11229;DHT22;5671;47.936;8.716;2023-03-03T16:10:02;7.10;59.50
11229;DHT22;5671;47.936;8.716;2023-03-03T16:12:42;7.00;60.10
11229;DHT22;5671;47.936;8.716;2023-03-03T16:15:33;7.00;59.50
11229;DHT22;5671;47.936;8.716;2023-03-03T16:18:06;6.90;59.60
11229;DHT22;5671;47.936;8.716;2023-03-03T16:20:40;6.80;59.90
11229;DHT22;5671;47.936;8.716;2023-03-03T16:23:29;6.70;59.90
11229;DHT22;5671;47.936;8.716;2023-03-03T16:26:17;6.60;60.50
11229;DHT22;5671;47.936;8.716;2023-03-03T16:29:00;6.50;60.70
11229;DHT22;5671;47.936;8.716;2023-03-03T16:31:34;6.50;60.80
11229;DHT22;5671;47.936;8.716;2023-03-03T16:34:09;6.40;60.50
11229;DHT22;5671;47.936;8.716;2023-03-03T16:36:53;6.30;61.70
11229;DHT22;5671;47.936;8.716;2023-03-03T16:39:27;6.30;62.10
11229;DHT22;5671;47.936;8.716;2023-03-03T16:42:02;6.20;61.70
11229;DHT22;5671;47.936;8.716;2023-03-03T16:44:38;6.10;61.90
11229;DHT22;5671;47.936;8.716;2023-03-03T16:47:18;6.00;62.30
11229;DHT22;5671;47.936;8.716;2023-03-03T16:49:55;5.90;62.10
11229;DHT22;5671;47.936;8.716;2023-03-03T16:52:32;5.80;62.30
11229;DHT22;5671;47.936;8.716;2023-03-03T16:55:10;5.70;62.60
11229;DHT22;5671;47.936;8.716;2023-03-03T16:57:47;5.60;62.70
11229;DHT22;5671;47.936;8.716;2023-03-03T17:00:20;5.50;62.70
11229;DHT22;5671;47.936;8.716;2023-03-03T17:03:17;5.50;63.60
11229;DHT22;5671;47.936;8.716;2023-03-03T17:05:50;5.40;63.60